Latest Weather Observations for Bedout Island

IDW60801

Issued at 12:33 pm WST Sunday 26 June 2016 (issued every 30 minutes, with the page automatically refreshed every 10 minutes)

About weather observations | Map of weather stations | Latest weather observations for WA | Other Formats
Station Details ID: 004100 Name: BEDOUT ISLAND Lat: -19.59 Lon: 119.10 Height: 8.6 m
Data from the previous 72 hours. | See also: Recent months at Bedout Island
Date/Time
WST
Temp
°C
App
Temp
°C
Dew
Point
°C
Rel
Hum
%
Delta-T
°C
Wind Press
QNH
hPa
Press
MSL
hPa
Rain since
9am
mm
Dir  Spd
km/h
Gust
km/h
Spd
kts
Gust
kts
26/12:30pm 22.9 17.5 12.8 53 5.8 ESE 33 41 18 22 1016.0 - -
26/12:00pm 22.9 16.6 13.4 55 5.5 ESE 39 46 21 25 1016.4 1016.3 -
26/11:30am 22.1 15.1 12.6 55 5.4 ESE 41 50 22 27 1016.6 - -
26/11:00am 21.8 14.9 13.9 61 4.6 ESE 43 50 23 27 1016.8 - -
26/10:30am 21.5 14.3 13.7 61 4.5 ESE 44 54 24 29 1017.0 - -
26/10:00am 21.1 14.2 14.5 66 3.9 ESE 44 52 24 28 1017.2 - -
26/09:30am 20.6 13.3 14.5 68 3.6 ESE 46 54 25 29 1017.2 - -
26/09:00am 20.5 12.9 14.8 70 3.3 ESE 48 56 26 30 1017.4 1017.3 -
26/08:30am 20.2 12.7 15.0 72 3.1 ESE 48 57 26 31 1017.4 - -
26/08:00am 19.9 12.8 15.1 74 2.8 SE 46 56 25 30 1017.0 - -
26/07:30am 19.9 12.7 15.7 77 2.5 SE 48 56 26 30 1016.9 - -
26/07:00am 19.6 12.4 15.9 79 2.2 SE 48 56 26 30 1016.7 - -
26/06:30am 19.6 12.9 16.1 80 2.1 SE 46 54 25 29 1016.6 - -
26/06:00am 19.8 11.8 15.7 77 2.4 SE 52 59 28 32 1016.4 1016.3 -
26/05:30am 19.8 13.3 16.6 82 1.9 SE 46 57 25 31 1016.4 - -
26/05:00am 20.2 14.0 17.4 84 1.7 SE 46 54 25 29 1016.0 - -
26/04:30am 20.3 14.7 17.5 84 1.7 SE 43 50 23 27 1015.9 - -
26/04:00am 20.7 15.3 17.9 84 1.7 SE 43 50 23 27 1015.9 - -
26/03:30am 21.1 15.1 17.9 82 2.0 SE 46 56 25 30 1015.9 - -
26/03:00am 21.4 16.1 18.6 84 1.8 SSE 44 52 24 28 1015.9 1015.8 -
26/02:30am 21.5 16.8 18.7 84 1.8 SSE 41 48 22 26 1016.1 - -
26/02:00am 21.4 16.8 18.8 85 1.6 SSE 41 46 22 25 1016.1 - -
26/01:30am 21.9 18.4 19.5 86 1.5 SSE 37 43 20 23 1016.1 - -
26/01:00am 22.2 19.5 19.7 86 1.6 SSE 33 39 18 21 1015.9 - -
26/12:30am 22.8 19.5 20.1 85 1.7 SE 37 43 20 23 1015.7 - -
26/12:00am 22.8 19.5 20.1 85 1.7 SE 37 43 20 23 1015.5 1015.4 -
 
Date/Time
WST
Temp
°C
App
Temp
°C
Dew
Point
°C
Rel
Hum
%
Delta-T
°C
Wind Press
QNH
hPa
Press
MSL
hPa
Rain since
9am
mm
Dir  Spd
km/h
Gust
km/h
Spd
kts
Gust
kts
25/11:30pm 23.1 20.3 20.2 84 1.9 SSE 35 41 19 22 1015.5 - -
25/11:00pm 23.1 20.7 20.4 85 1.7 SSE 33 39 18 21 1015.6 - -
25/10:30pm 23.4 22.7 21.1 87 1.5 S 26 32 14 17 1015.7 - -
25/10:00pm 23.4 24.6 22.2 93 0.8 S 19 20 10 11 1015.7 - -
25/09:30pm 23.2 24.7 22.7 97 0.3 S 19 22 10 12 1015.5 - -
25/09:00pm 23.0 25.7 22.8 99 0.1 ENE 13 17 7 9 1015.2 1015.1 -
25/08:30pm 22.8 25.2 22.3 97 0.3 ENE 13 15 7 8 1015.1 - -
25/08:00pm 22.7 25.4 22.2 97 0.3 ENE 11 13 6 7 1014.9 - -
25/07:30pm 22.6 25.7 22.1 97 0.3 ENE 9 9 5 5 1014.5 - -
25/07:00pm 22.6 25.6 21.9 96 0.5 ENE 9 13 5 7 1014.3 - -
25/06:30pm 22.4 25.3 21.7 96 0.5 ENE 9 11 5 6 1013.8 - -
25/06:00pm 22.5 25.0 21.7 95 0.5 ENE 11 15 6 8 1013.3 1013.2 -
25/05:30pm 22.5 24.5 21.5 94 0.7 ENE 13 15 7 8 1013.0 - -
25/05:00pm 22.8 23.9 21.3 91 1.0 ENE 17 20 9 11 1013.0 - -
25/04:30pm 23.3 24.9 21.4 89 1.3 ENE 15 19 8 10 1012.8 - -
25/04:00pm 23.6 25.1 22.0 91 1.1 ENE 17 20 9 11 1012.6 - -
25/03:30pm 22.8 23.2 21.8 94 0.7 ENE 22 28 12 15 1012.5 - -
25/03:00pm 23.0 23.0 21.6 92 0.9 ENE 24 28 13 15 1012.5 1012.4 -
25/02:30pm 22.6 22.7 21.9 96 0.5 ENE 24 30 13 16 1012.6 - -
25/02:00pm 21.5 19.9 20.8 96 0.5 ENE 30 35 16 19 1012.7 - -
25/01:58pm 21.6 20.1 20.9 96 0.5 ENE 30 35 16 19 1012.7 - -
25/01:30pm 23.4 26.0 22.6 95 0.5 ENE 13 15 7 8 1012.6 - -
25/01:00pm 22.7 25.0 22.7 100 0.0 ENE 15 17 8 9 1012.9 - -
25/12:30pm 22.2 24.2 22.2 100 0.0 ENE 15 19 8 10 1013.5 - -
25/12:00pm 23.6 25.3 20.1 81 2.3 ENE 11 17 6 9 1013.8 1013.7 -
25/11:30am 25.2 27.3 20.2 74 3.3 ENE 9 11 5 6 1013.7 - -
25/11:00am 24.4 26.0 19.9 76 2.9 ENE 11 15 6 8 1014.1 - -
25/10:30am 24.7 25.9 20.0 75 3.0 ENE 13 17 7 9 1014.3 - -
25/10:00am 26.2 26.8 20.3 70 3.9 ENE 17 19 9 10 1014.2 - -
25/09:30am 24.2 24.5 19.5 75 3.0 ENE 17 20 9 11 1014.2 - -
25/09:00am 24.3 24.1 19.4 74 3.1 ENE 19 20 10 11 1014.5 1014.4 -
25/08:30am 23.4 23.0 19.3 78 2.6 ENE 20 20 11 11 1014.4 - -
25/08:00am 22.2 23.0 21.7 97 0.3 ENE 20 22 11 12 1014.1 - -
25/07:30am 21.9 23.0 21.9 100 0.0 ENE 19 22 10 12 1013.8 - -
25/07:00am 22.4 24.1 22.4 100 0.0 ENE 17 20 9 11 1013.5 - -
25/06:30am 22.5 24.3 22.5 100 0.0 ENE 17 20 9 11 1013.2 - -
25/06:00am 22.7 24.6 22.7 100 0.0 ENE 17 20 9 11 1013.0 1012.9 -
25/05:30am 23.3 25.5 23.3 100 0.0 ENE 17 19 9 10 1012.7 - -
25/05:00am 23.5 27.0 23.5 100 0.0 ENE 11 13 6 7 1012.5 - -
25/04:30am 23.9 27.1 23.7 99 0.1 ENE 13 15 7 8 1012.5 - -
25/04:00am 23.5 26.8 22.5 94 0.7 ENE 9 11 5 6 1012.5 - -
25/03:30am 23.5 27.1 23.0 97 0.3 ENE 9 11 5 6 1012.6 - -
25/03:00am 23.7 27.9 23.4 98 0.2 ENE 7 9 4 5 1012.5 1012.4 -
25/02:30am 23.6 27.4 23.4 99 0.1 ENE 9 11 5 6 1012.7 - -
25/02:00am 23.4 27.5 22.9 97 0.3 ENE 6 7 3 4 1012.8 - -
25/01:30am 23.5 27.4 23.0 97 0.3 ENE 7 7 4 4 1013.0 - -
25/01:00am 23.4 27.6 23.1 98 0.2 ENE 6 6 3 3 1013.0 - -
25/12:30am 23.3 27.4 23.0 98 0.2 ENE 6 6 3 3 1013.0 - -
25/12:00am 23.2 27.0 22.7 97 0.3 ENE 7 9 4 5 1013.3 1013.2 -
 
Date/Time
WST
Temp
°C
App
Temp
°C
Dew
Point
°C
Rel
Hum
%
Delta-T
°C
Wind Press
QNH
hPa
Press
MSL
hPa
Rain since
9am
mm
Dir  Spd
km/h
Gust
km/h
Spd
kts
Gust
kts
24/11:30pm 23.3 27.0 22.6 96 0.5 ENE 7 9 4 5 1013.5 - -
24/11:00pm 23.1 28.0 22.3 95 0.5 CALM 0 0 0 0 1013.5 - -
24/10:30pm 23.0 27.3 22.0 94 0.7 ENE 2 6 1 3 1013.6 - -
24/10:00pm 23.3 26.9 22.3 94 0.7 ENE 7 9 4 5 1013.7 - -
24/09:30pm 23.4 26.0 22.0 92 0.9 ENE 11 11 6 6 1013.7 - -
24/09:00pm 23.4 26.0 22.0 92 0.9 ENE 11 13 6 7 1013.8 1013.7 -
24/08:30pm 23.5 26.1 21.9 91 1.1 ENE 11 11 6 6 1013.8 - -
24/08:00pm 23.1 26.2 21.4 90 1.1 ENE 7 7 4 4 1013.8 - -
24/07:30pm 23.0 25.9 21.1 89 1.2 ENE 7 9 4 5 1013.7 - -
24/07:00pm 23.0 26.1 20.3 85 1.7 ENE 4 7 2 4 1013.5 - -
24/06:30pm 23.3 25.6 20.6 85 1.8 ENE 9 11 5 6 1013.3 - -
24/05:30pm 23.9 25.4 20.6 82 2.2 ENE 13 15 7 8 1012.6 - -
24/05:00pm 24.5 26.0 20.6 79 2.5 ENE 13 17 7 9 1012.3 - -
24/04:30pm 24.9 26.5 20.8 78 2.7 ENE 13 17 7 9 1012.0 - -
24/04:00pm 25.2 26.1 20.9 77 2.8 ENE 17 20 9 11 1011.7 - -
24/03:30pm 25.4 25.8 20.9 76 3.0 ENE 20 24 11 13 1011.7 - -
24/03:00pm 25.1 25.4 20.8 77 2.8 ENE 20 24 11 13 1011.6 1011.5 -
24/02:30pm 25.6 25.4 20.6 74 3.3 ENE 22 28 12 15 1011.7 - -
24/02:00pm 25.7 25.2 20.7 74 3.3 ENE 24 28 13 15 1011.9 - -
24/01:30pm 25.7 24.8 20.7 74 3.3 ENE 26 32 14 17 1012.1 - -
24/01:00pm 25.1 22.8 20.1 74 3.2 E 32 37 17 20 1012.3 - -
24/12:30pm 25.0 22.9 20.5 76 2.9 E 32 35 17 19 1012.9 - -
24/12:00pm 24.8 22.6 20.3 76 2.9 E 32 35 17 19 1013.4 1013.3 -
24/11:30am 24.2 22.1 19.7 76 2.9 E 30 37 16 20 1014.2 - -
24/11:00am 24.3 22.3 20.0 77 2.8 E 30 35 16 19 1014.7 - -
24/10:30am 23.5 20.8 19.6 79 2.5 E 33 39 18 21 1015.0 - -
24/10:00am 23.5 20.9 19.6 79 2.5 ESE 32 39 17 21 1015.3 - -
24/09:30am 23.0 20.4 19.4 80 2.3 ESE 32 35 17 19 1015.4 - -
24/09:00am 22.6 20.2 19.2 81 2.2 ESE 30 37 16 20 1015.3 1015.2 -
24/08:30am 22.5 20.1 19.1 81 2.2 ESE 30 35 16 19 1015.0 - -
24/08:00am 23.0 20.3 19.6 81 2.2 ESE 33 37 18 20 1014.6 - -
24/07:30am 22.1 19.1 18.7 81 2.1 SE 32 39 17 21 1014.6 - -
24/07:00am 21.9 19.0 18.9 83 1.9 SE 32 37 17 20 1014.3 - -
24/06:30am 21.6 18.7 18.8 84 1.8 SE 32 35 17 19 1014.1 - -
24/06:00am 22.3 19.2 18.9 81 2.1 ESE 33 37 18 20 1013.8 1013.7 -
24/05:30am 22.3 18.9 19.1 82 2.0 ESE 35 39 19 21 1013.5 - -
24/05:00am 22.4 19.7 19.2 82 2.0 ESE 32 35 17 19 1013.3 - -
24/04:30am 22.2 19.6 19.6 85 1.7 ESE 32 37 17 20 1013.2 - -
24/04:00am 22.3 19.8 19.7 85 1.7 ESE 32 37 17 20 1013.3 - -
24/03:30am 22.6 20.2 20.3 87 1.5 ESE 33 39 18 21 1013.3 - -
24/03:00am 22.7 20.5 20.4 87 1.5 ESE 32 35 17 19 1013.3 1013.2 -
24/02:30am 23.2 20.4 20.3 84 1.9 ESE 35 39 19 21 1013.3 - -
24/02:00am 23.3 21.1 20.8 86 1.6 SE 33 39 18 21 1013.3 - -
24/01:30am 23.4 20.9 20.9 86 1.6 SE 35 41 19 22 1013.4 - -
24/01:00am 23.8 21.6 20.7 83 2.0 SE 33 37 18 20 1013.6 - -
24/12:30am 23.8 22.3 20.9 84 1.9 SE 30 33 16 18 1013.6 - -
24/12:00am 23.9 22.0 21.0 84 1.9 SE 32 35 17 19 1013.4 1013.3 -
 
Date/Time
WST
Temp
°C
App
Temp
°C
Dew
Point
°C
Rel
Hum
%
Delta-T
°C
Wind Press
QNH
hPa
Press
MSL
hPa
Rain since
9am
mm
Dir  Spd
km/h
Gust
km/h
Spd
kts
Gust
kts
23/11:30pm 23.5 22.3 20.8 85 1.8 SE 28 32 15 17 1013.8 - -
23/11:00pm 23.3 22.6 21.0 87 1.5 SE 26 30 14 16 1013.9 - -
23/10:30pm 23.4 23.0 21.7 90 1.1 SE 26 28 14 15 1014.0 - -
23/10:00pm 23.5 23.2 21.8 90 1.1 ESE 26 28 14 15 1013.9 - -
23/09:30pm 23.8 25.8 22.2 91 1.1 ESE 15 20 8 11 1013.7 - -
23/09:00pm 24.2 27.8 22.3 89 1.3 ESE 7 9 4 5 1013.6 1013.5 -
23/08:30pm 24.2 27.8 22.3 89 1.3 ESE 7 9 4 5 1013.3 - -
23/08:00pm 24.2 27.4 22.3 89 1.3 ESE 9 11 5 6 1013.1 - -
23/07:30pm 24.1 26.7 22.0 88 1.4 ESE 11 13 6 7 1012.9 - -
23/07:00pm 24.3 26.6 22.0 87 1.5 ESE 13 15 7 8 1012.6 - -
23/06:30pm 24.2 26.6 22.3 89 1.3 ESE 13 15 7 8 1012.4 - -
23/06:00pm 24.1 26.0 22.0 88 1.4 ESE 15 17 8 9 1012.1 1012.0 -
23/05:30pm 24.0 25.8 21.9 88 1.4 ESE 15 17 8 9 1011.8 - -
23/05:00pm 24.3 25.6 21.6 85 1.8 ESE 17 19 9 10 1011.7 - -
23/04:30pm 24.3 25.7 21.8 86 1.7 ESE 17 19 9 10 1011.6 - -
23/04:00pm 24.5 26.0 22.0 86 1.7 ESE 17 19 9 10 1011.3 - -
23/03:30pm 24.6 26.0 22.5 88 1.4 ESE 19 20 10 11 1011.3 - -
23/03:00pm 24.3 25.4 22.4 89 1.3 ESE 20 22 11 12 1011.1 1011.0 -
23/02:30pm 24.5 25.4 22.7 90 1.2 ESE 22 26 12 14 1011.1 - -
23/02:00pm 24.5 25.4 23.3 93 0.8 ESE 24 26 13 14 1011.3 - -
23/01:30pm 24.4 25.5 24.4 100 0.0 ESE 26 28 14 15 1011.6 - -
23/01:00pm 23.9 24.8 23.9 100 0.0 ESE 26 30 14 16 1011.7 - -

Other Formats:

Comma delimited format used in spreadsheet applications
http://www.bom.gov.au/fwo/IDW60801/IDW60801.94310.axf

JavaScript Object Notation format (JSON) in row-major order
http://www.bom.gov.au/fwo/IDW60801/IDW60801.94310.json